Accueil
METAR-TAF:

METAR-TAF

Aéroports :

Plaisance, Italie

latitude: 44-55N, longitude: 009-44E, altitude: 134 m

Observation

Le bulletin a été fait il y a 27 minutes, à 12:55 UTC
Vent 4 kt de est/sud-est, variant entre est/nord-est et sud
Température 23°C
Humidité 69%
Pression 1026 hPa
Visibilité: 7000 m
Quelques nuages à une hauteur de 4000 ft

METAR: LIMS 061255Z 12004KT 060V180 7000 FEW040 23/17 Q1026 RMK FEW VIS MIN 7000 WIND THR30 08006KT WHT

Heure: 15:22 (13:22 UTC)


TAF: absent

Observations et prévisions météorologiques de plus de 4000 aéroports (messages METAR et TAF).

Les stations disponibles sont représentées par des disques jaunes et rouges sur la carte.

Passer la souris dessus pour voir le nom de la station.

Cliquer dessus pour voir les observations et prévisions météorologiques.

Pour changer de carte: cliquez sur les boutons verts avec une croix noire pour zoomer, sur le bouton vert avec un tiret pour effectuer un zoom arrière, ou sur les flèches vertes pour les cartes adjacentes.


METAR-TAF: